sensor_id;sensor_type;location;lat;lon;timestamp;temperature;humidity
72114;SHT31;59989;46.220;19.888;2023-04-01T00:03:00;10.23;89.39
72114;SHT31;59989;46.220;19.888;2023-04-01T00:06:03;10.18;89.47
72114;SHT31;59989;46.220;19.888;2023-04-01T00:09:06;10.13;89.78
72114;SHT31;59989;46.220;19.888;2023-04-01T00:12:09;10.06;89.81
72114;SHT31;59989;46.220;19.888;2023-04-01T00:15:12;10.03;89.82
72114;SHT31;59989;46.220;19.888;2023-04-01T00:18:14;10.02;89.91
72114;SHT31;59989;46.220;19.888;2023-04-01T00:21:18;9.99;89.70
72114;SHT31;59989;46.220;19.888;2023-04-01T00:24:21;9.98;89.63
72114;SHT31;59989;46.220;19.888;2023-04-01T00:27:23;9.98;89.68
72114;SHT31;59989;46.220;19.888;2023-04-01T00:30:25;9.98;89.56
72114;SHT31;59989;46.220;19.888;2023-04-01T00:33:28;9.99;89.57
72114;SHT31;59989;46.220;19.888;2023-04-01T00:36:30;9.98;89.55
72114;SHT31;59989;46.220;19.888;2023-04-01T00:39:34;9.98;89.48
72114;SHT31;59989;46.220;19.888;2023-04-01T00:42:37;9.98;89.45
72114;SHT31;59989;46.220;19.888;2023-04-01T00:45:42;9.97;89.37
72114;SHT31;59989;46.220;19.888;2023-04-01T00:48:51;9.97;89.35
72114;SHT31;59989;46.220;19.888;2023-04-01T00:51:57;9.99;88.86
72114;SHT31;59989;46.220;19.888;2023-04-01T00:55:04;9.99;88.90
72114;SHT31;59989;46.220;19.888;2023-04-01T00:58:13;9.98;88.65
72114;SHT31;59989;46.220;19.888;2023-04-01T01:01:19;9.95;88.57
72114;SHT31;59989;46.220;19.888;2023-04-01T01:04:27;9.92;88.52
72114;SHT31;59989;46.220;19.888;2023-04-01T01:07:44;9.95;88.41
72114;SHT31;59989;46.220;19.888;2023-04-01T01:10:49;9.95;88.54
72114;SHT31;59989;46.220;19.888;2023-04-01T01:27:22;9.97;88.87
72114;SHT31;59989;46.220;19.888;2023-04-01T01:30:58;9.88;88.63
72114;SHT31;59989;46.220;19.888;2023-04-01T01:34:31;9.91;88.61
72114;SHT31;59989;46.220;19.888;2023-04-01T01:37:37;9.91;88.36
72114;SHT31;59989;46.220;19.888;2023-04-01T01:40:46;9.99;88.49
72114;SHT31;59989;46.220;19.888;2023-04-01T01:43:52;10.01;87.98
72114;SHT31;59989;46.220;19.888;2023-04-01T01:46:56;10.03;87.84
72114;SHT31;59989;46.220;19.888;2023-04-01T01:49:59;10.01;87.94
72114;SHT31;59989;46.220;19.888;2023-04-01T01:53:04;9.97;88.25
72114;SHT31;59989;46.220;19.888;2023-04-01T01:56:07;9.98;88.41
72114;SHT31;59989;46.220;19.888;2023-04-01T01:59:15;9.97;88.40
72114;SHT31;59989;46.220;19.888;2023-04-01T02:02:19;9.98;88.41
72114;SHT31;59989;46.220;19.888;2023-04-01T02:05:25;9.97;88.58
72114;SHT31;59989;46.220;19.888;2023-04-01T02:08:43;9.91;88.55
72114;SHT31;59989;46.220;19.888;2023-04-01T02:12:01;9.92;88.33
72114;SHT31;59989;46.220;19.888;2023-04-01T02:15:12;9.88;88.48
72114;SHT31;59989;46.220;19.888;2023-04-01T02:18:18;9.81;88.29
72114;SHT31;59989;46.220;19.888;2023-04-01T02:21:23;9.85;88.31
72114;SHT31;59989;46.220;19.888;2023-04-01T02:24:28;9.81;88.43
72114;SHT31;59989;46.220;19.888;2023-04-01T02:27:32;9.77;88.39
72114;SHT31;59989;46.220;19.888;2023-04-01T02:30:36;9.78;88.79
72114;SHT31;59989;46.220;19.888;2023-04-01T02:33:41;9.80;88.80
72114;SHT31;59989;46.220;19.888;2023-04-01T02:36:44;9.78;88.96
72114;SHT31;59989;46.220;19.888;2023-04-01T02:39:47;9.74;88.68
72114;SHT31;59989;46.220;19.888;2023-04-01T02:42:50;9.74;88.91
72114;SHT31;59989;46.220;19.888;2023-04-01T02:45:53;9.77;89.10
72114;SHT31;59989;46.220;19.888;2023-04-01T02:48:56;9.70;89.46
72114;SHT31;59989;46.220;19.888;2023-04-01T02:51:58;9.67;89.26
72114;SHT31;59989;46.220;19.888;2023-04-01T02:55:01;9.63;89.56
72114;SHT31;59989;46.220;19.888;2023-04-01T02:58:04;9.65;89.76
72114;SHT31;59989;46.220;19.888;2023-04-01T03:01:07;9.69;89.87
72114;SHT31;59989;46.220;19.888;2023-04-01T03:04:10;9.67;90.20
72114;SHT31;59989;46.220;19.888;2023-04-01T03:07:13;9.64;90.25
72114;SHT31;59989;46.220;19.888;2023-04-01T03:10:15;9.67;90.49
72114;SHT31;59989;46.220;19.888;2023-04-01T03:13:18;9.58;90.30
72114;SHT31;59989;46.220;19.888;2023-04-01T03:16:21;9.60;90.71
72114;SHT31;59989;46.220;19.888;2023-04-01T03:19:24;9.60;90.78
72114;SHT31;59989;46.220;19.888;2023-04-01T03:22:27;9.51;90.82
72114;SHT31;59989;46.220;19.888;2023-04-01T03:25:29;9.60;91.07
72114;SHT31;59989;46.220;19.888;2023-04-01T03:28:33;9.57;91.24
72114;SHT31;59989;46.220;19.888;2023-04-01T03:31:36;9.57;91.16
72114;SHT31;59989;46.220;19.888;2023-04-01T03:34:38;9.54;91.12
72114;SHT31;59989;46.220;19.888;2023-04-01T03:37:41;9.48;91.13
72114;SHT31;59989;46.220;19.888;2023-04-01T03:40:43;9.51;91.34
72114;SHT31;59989;46.220;19.888;2023-04-01T03:43:46;9.54;91.66
72114;SHT31;59989;46.220;19.888;2023-04-01T03:46:49;9.55;91.54
72114;SHT31;59989;46.220;19.888;2023-04-01T03:49:52;9.53;91.52
72114;SHT31;59989;46.220;19.888;2023-04-01T03:52:55;9.55;91.79
72114;SHT31;59989;46.220;19.888;2023-04-01T03:55:57;9.53;91.74
72114;SHT31;59989;46.220;19.888;2023-04-01T03:59:07;9.57;91.89
72114;SHT31;59989;46.220;19.888;2023-04-01T04:02:10;9.55;91.89
72114;SHT31;59989;46.220;19.888;2023-04-01T04:05:14;9.58;91.90
72114;SHT31;59989;46.220;19.888;2023-04-01T04:08:17;9.61;92.09
72114;SHT31;59989;46.220;19.888;2023-04-01T04:11:20;9.58;91.86
72114;SHT31;59989;46.220;19.888;2023-04-01T04:14:25;9.57;91.77
72114;SHT31;59989;46.220;19.888;2023-04-01T04:17:28;9.60;92.04
72114;SHT31;59989;46.220;19.888;2023-04-01T04:20:49;9.54;92.02
72114;SHT31;59989;46.220;19.888;2023-04-01T04:24:11;9.51;91.83
72114;SHT31;59989;46.220;19.888;2023-04-01T04:27:37;9.55;91.96
72114;SHT31;59989;46.220;19.888;2023-04-01T04:30:57;9.55;91.90
72114;SHT31;59989;46.220;19.888;2023-04-01T04:34:17;9.54;91.81
72114;SHT31;59989;46.220;19.888;2023-04-01T04:37:37;9.55;91.85
72114;SHT31;59989;46.220;19.888;2023-04-01T04:40:58;9.51;91.80
72114;SHT31;59989;46.220;19.888;2023-04-01T04:44:20;9.54;91.78
72114;SHT31;59989;46.220;19.888;2023-04-01T04:47:40;9.60;91.75
72114;SHT31;59989;46.220;19.888;2023-04-01T04:51:00;9.63;91.75
72114;SHT31;59989;46.220;19.888;2023-04-01T04:54:20;9.64;91.67
72114;SHT31;59989;46.220;19.888;2023-04-01T04:57:41;9.64;91.64
72114;SHT31;59989;46.220;19.888;2023-04-01T05:01:12;9.65;91.58
72114;SHT31;59989;46.220;19.888;2023-04-01T05:04:36;9.69;91.53
72114;SHT31;59989;46.220;19.888;2023-04-01T05:07:56;9.70;91.68
72114;SHT31;59989;46.220;19.888;2023-04-01T05:11:18;9.71;91.57
72114;SHT31;59989;46.220;19.888;2023-04-01T05:14:38;9.78;91.62
72114;SHT31;59989;46.220;19.888;2023-04-01T05:17:58;9.84;91.40
72114;SHT31;59989;46.220;19.888;2023-04-01T05:21:19;9.88;91.28
72114;SHT31;59989;46.220;19.888;2023-04-01T05:24:39;10.01;91.24
72114;SHT31;59989;46.220;19.888;2023-04-01T05:27:59;10.03;90.92
72114;SHT31;59989;46.220;19.888;2023-04-01T05:31:20;10.08;91.14
72114;SHT31;59989;46.220;19.888;2023-04-01T05:34:40;10.06;90.97
72114;SHT31;59989;46.220;19.888;2023-04-01T05:38:00;10.16;91.03
72114;SHT31;59989;46.220;19.888;2023-04-01T05:41:20;10.15;90.76
72114;SHT31;59989;46.220;19.888;2023-04-01T05:44:40;10.09;90.34
72114;SHT31;59989;46.220;19.888;2023-04-01T05:48:24;10.13;90.82
72114;SHT31;59989;46.220;19.888;2023-04-01T05:51:45;10.16;90.81
72114;SHT31;59989;46.220;19.888;2023-04-01T05:55:06;10.18;90.71
72114;SHT31;59989;46.220;19.888;2023-04-01T05:58:26;10.12;90.57
72114;SHT31;59989;46.220;19.888;2023-04-01T06:01:46;10.12;90.52
72114;SHT31;59989;46.220;19.888;2023-04-01T06:05:23;10.16;90.28
72114;SHT31;59989;46.220;19.888;2023-04-01T06:08:45;10.21;90.60
72114;SHT31;59989;46.220;19.888;2023-04-01T06:15:54;10.25;90.26
72114;SHT31;59989;46.220;19.888;2023-04-01T06:30:32;10.33;90.15
72114;SHT31;59989;46.220;19.888;2023-04-01T06:38:07;10.32;89.91
72114;SHT31;59989;46.220;19.888;2023-04-01T06:41:39;10.36;90.01
72114;SHT31;59989;46.220;19.888;2023-04-01T06:45:22;10.38;89.80
72114;SHT31;59989;46.220;19.888;2023-04-01T06:57:28;10.60;89.48
72114;SHT31;59989;46.220;19.888;2023-04-01T07:01:13;10.56;88.81
72114;SHT31;59989;46.220;19.888;2023-04-01T07:04:37;10.61;89.15
72114;SHT31;59989;46.220;19.888;2023-04-01T07:08:02;10.63;88.92
72114;SHT31;59989;46.220;19.888;2023-04-01T07:11:29;10.70;88.83
72114;SHT31;59989;46.220;19.888;2023-04-01T07:15:25;10.70;88.81
72114;SHT31;59989;46.220;19.888;2023-04-01T07:18:53;10.73;88.54
72114;SHT31;59989;46.220;19.888;2023-04-01T07:22:38;10.71;87.96
72114;SHT31;59989;46.220;19.888;2023-04-01T07:26:23;10.83;88.07
72114;SHT31;59989;46.220;19.888;2023-04-01T07:29:46;10.80;88.06
72114;SHT31;59989;46.220;19.888;2023-04-01T07:37:25;10.85;87.91
72114;SHT31;59989;46.220;19.888;2023-04-01T07:41:04;10.98;87.97
72114;SHT31;59989;46.220;19.888;2023-04-01T07:44:34;11.00;87.46
72114;SHT31;59989;46.220;19.888;2023-04-01T07:48:12;11.03;87.49
72114;SHT31;59989;46.220;19.888;2023-04-01T07:55:24;11.10;86.85
72114;SHT31;59989;46.220;19.888;2023-04-01T08:02:35;11.07;86.24
72114;SHT31;59989;46.220;19.888;2023-04-01T08:06:07;11.14;86.75
72114;SHT31;59989;46.220;19.888;2023-04-01T08:17:30;11.25;86.87
72114;SHT31;59989;46.220;19.888;2023-04-01T08:20:57;11.25;86.48
72114;SHT31;59989;46.220;19.888;2023-04-01T08:24:29;11.29;86.41
72114;SHT31;59989;46.220;19.888;2023-04-01T08:28:22;11.27;86.35
72114;SHT31;59989;46.220;19.888;2023-04-01T08:31:59;11.31;86.83
72114;SHT31;59989;46.220;19.888;2023-04-01T08:35:38;11.25;86.51
72114;SHT31;59989;46.220;19.888;2023-04-01T08:42:51;11.52;86.55
72114;SHT31;59989;46.220;19.888;2023-04-01T08:50:17;11.67;85.72
72114;SHT31;59989;46.220;19.888;2023-04-01T08:54:20;11.83;85.78
72114;SHT31;59989;46.220;19.888;2023-04-01T08:57:56;11.93;85.33
72114;SHT31;59989;46.220;19.888;2023-04-01T09:05:36;11.91;84.24
72114;SHT31;59989;46.220;19.888;2023-04-01T09:21:12;11.97;82.67
72114;SHT31;59989;46.220;19.888;2023-04-01T09:27:44;12.04;83.28
72114;SHT31;59989;46.220;19.888;2023-04-01T09:35:42;12.04;81.91
72114;SHT31;59989;46.220;19.888;2023-04-01T09:43:13;12.25;83.11
72114;SHT31;59989;46.220;19.888;2023-04-01T09:46:56;12.31;83.02
72114;SHT31;59989;46.220;19.888;2023-04-01T10:20:38;12.81;77.42
72114;SHT31;59989;46.220;19.888;2023-04-01T11:19:07;13.41;71.24
72114;SHT31;59989;46.220;19.888;2023-04-01T11:26:25;13.51;71.07
72114;SHT31;59989;46.220;19.888;2023-04-01T11:33:54;13.47;72.70
72114;SHT31;59989;46.220;19.888;2023-04-01T11:45:39;13.61;70.86
72114;SHT31;59989;46.220;19.888;2023-04-01T11:53:05;13.68;70.84
72114;SHT31;59989;46.220;19.888;2023-04-01T12:04:12;13.71;72.27
72114;SHT31;59989;46.220;19.888;2023-04-01T12:41:20;13.82;67.20
72114;SHT31;59989;46.220;19.888;2023-04-01T12:52:25;13.86;68.03
72114;SHT31;59989;46.220;19.888;2023-04-01T12:55:48;13.99;68.40
72114;SHT31;59989;46.220;19.888;2023-04-01T13:07:14;13.94;66.40
72114;SHT31;59989;46.220;19.888;2023-04-01T13:11:14;13.95;67.20
72114;SHT31;59989;46.220;19.888;2023-04-01T13:15:09;14.05;67.42
72114;SHT31;59989;46.220;19.888;2023-04-01T13:26:12;14.23;67.21
72114;SHT31;59989;46.220;19.888;2023-04-01T13:29:36;14.28;65.61
72114;SHT31;59989;46.220;19.888;2023-04-01T13:36:28;14.09;65.07
72114;SHT31;59989;46.220;19.888;2023-04-01T13:40:20;14.05;64.48
72114;SHT31;59989;46.220;19.888;2023-04-01T13:43:50;14.15;65.26
72114;SHT31;59989;46.220;19.888;2023-04-01T13:50:53;14.12;65.57
72114;SHT31;59989;46.220;19.888;2023-04-01T14:30:38;14.16;65.88
72114;SHT31;59989;46.220;19.888;2023-04-01T14:38:02;13.97;65.98
72114;SHT31;59989;46.220;19.888;2023-04-01T14:41:48;14.01;66.86
72114;SHT31;59989;46.220;19.888;2023-04-01T14:48:57;14.08;66.18
72114;SHT31;59989;46.220;19.888;2023-04-01T14:52:27;14.13;66.36
72114;SHT31;59989;46.220;19.888;2023-04-01T14:59:26;14.23;66.48
72114;SHT31;59989;46.220;19.888;2023-04-01T15:18:08;14.50;65.49
72114;SHT31;59989;46.220;19.888;2023-04-01T15:21:59;14.40;65.25
72114;SHT31;59989;46.220;19.888;2023-04-01T15:25:30;14.28;64.85
72114;SHT31;59989;46.220;19.888;2023-04-01T15:28:56;14.19;64.69
72114;SHT31;59989;46.220;19.888;2023-04-01T15:32:44;14.16;65.86
72114;SHT31;59989;46.220;19.888;2023-04-01T15:43:43;14.13;65.06
72114;SHT31;59989;46.220;19.888;2023-04-01T15:51:01;14.04;65.80
72114;SHT31;59989;46.220;19.888;2023-04-01T16:01:50;13.91;66.67
72114;SHT31;59989;46.220;19.888;2023-04-01T16:09:46;13.82;67.30
72114;SHT31;59989;46.220;19.888;2023-04-01T16:13:03;13.81;67.38
72114;SHT31;59989;46.220;19.888;2023-04-01T16:23:42;13.60;67.75
72114;SHT31;59989;46.220;19.888;2023-04-01T16:27:18;13.55;67.81
72114;SHT31;59989;46.220;19.888;2023-04-01T16:31:03;13.46;67.71
72114;SHT31;59989;46.220;19.888;2023-04-01T16:34:34;13.41;68.50
72114;SHT31;59989;46.220;19.888;2023-04-01T16:38:02;13.30;68.66
72114;SHT31;59989;46.220;19.888;2023-04-01T16:41:29;13.16;69.11
72114;SHT31;59989;46.220;19.888;2023-04-01T16:56:24;12.78;69.22
72114;SHT31;59989;46.220;19.888;2023-04-01T17:06:31;12.44;70.10
72114;SHT31;59989;46.220;19.888;2023-04-01T17:10:15;12.34;71.63
72114;SHT31;59989;46.220;19.888;2023-04-01T17:18:08;12.07;74.32
72114;SHT31;59989;46.220;19.888;2023-04-01T17:33:31;11.79;78.73
72114;SHT31;59989;46.220;19.888;2023-04-01T17:40:39;11.65;79.45
72114;SHT31;59989;46.220;19.888;2023-04-01T17:59:11;11.35;80.03
72114;SHT31;59989;46.220;19.888;2023-04-01T18:02:56;11.27;79.80
72114;SHT31;59989;46.220;19.888;2023-04-01T18:06:20;11.21;79.48
72114;SHT31;59989;46.220;19.888;2023-04-01T18:09:48;11.12;79.37
72114;SHT31;59989;46.220;19.888;2023-04-01T18:23:51;10.94;78.99
72114;SHT31;59989;46.220;19.888;2023-04-01T18:27:24;10.88;78.83
72114;SHT31;59989;46.220;19.888;2023-04-01T18:30:53;10.80;79.34
72114;SHT31;59989;46.220;19.888;2023-04-01T18:41:30;10.56;79.79
72114;SHT31;59989;46.220;19.888;2023-04-01T18:45:17;10.52;79.60
72114;SHT31;59989;46.220;19.888;2023-04-01T18:49:06;10.46;79.75
72114;SHT31;59989;46.220;19.888;2023-04-01T18:52:37;10.32;80.23
72114;SHT31;59989;46.220;19.888;2023-04-01T18:56:01;10.25;80.13
72114;SHT31;59989;46.220;19.888;2023-04-01T18:59:34;10.22;80.31
72114;SHT31;59989;46.220;19.888;2023-04-01T19:03:11;10.15;80.29
72114;SHT31;59989;46.220;19.888;2023-04-01T19:06:44;10.06;80.18
72114;SHT31;59989;46.220;19.888;2023-04-01T19:21:15;9.71;81.80
72114;SHT31;59989;46.220;19.888;2023-04-01T19:24:54;9.63;81.71
72114;SHT31;59989;46.220;19.888;2023-04-01T19:35:41;9.48;82.19
72114;SHT31;59989;46.220;19.888;2023-04-01T19:46:36;9.32;83.05
72114;SHT31;59989;46.220;19.888;2023-04-01T19:50:14;9.26;83.01
72114;SHT31;59989;46.220;19.888;2023-04-01T19:53:43;9.13;83.19
72114;SHT31;59989;46.220;19.888;2023-04-01T19:57:26;9.02;83.97
72114;SHT31;59989;46.220;19.888;2023-04-01T20:00:50;8.93;84.39
72114;SHT31;59989;46.220;19.888;2023-04-01T20:04:17;8.88;84.40
72114;SHT31;59989;46.220;19.888;2023-04-01T20:07:52;8.86;84.49
72114;SHT31;59989;46.220;19.888;2023-04-01T20:18:15;8.69;85.77
72114;SHT31;59989;46.220;19.888;2023-04-01T20:21:42;8.67;86.02
72114;SHT31;59989;46.220;19.888;2023-04-01T20:25:40;8.60;85.96
72114;SHT31;59989;46.220;19.888;2023-04-01T20:40:31;8.25;86.83
72114;SHT31;59989;46.220;19.888;2023-04-01T20:50:51;8.16;87.12
72114;SHT31;59989;46.220;19.888;2023-04-01T20:58:06;8.09;87.30
72114;SHT31;59989;46.220;19.888;2023-04-01T21:02:42;8.05;87.32
72114;SHT31;59989;46.220;19.888;2023-04-01T21:06:40;7.98;87.41
72114;SHT31;59989;46.220;19.888;2023-04-01T21:31:49;7.72;87.85
72114;SHT31;59989;46.220;19.888;2023-04-01T21:35:26;7.69;87.89
72114;SHT31;59989;46.220;19.888;2023-04-01T21:39:36;7.62;88.05
72114;SHT31;59989;46.220;19.888;2023-04-01T21:54:13;7.64;87.96
72114;SHT31;59989;46.220;19.888;2023-04-01T22:05:11;7.57;87.87
72114;SHT31;59989;46.220;19.888;2023-04-01T22:08:48;7.55;87.86
72114;SHT31;59989;46.220;19.888;2023-04-01T22:12:21;7.55;87.79
72114;SHT31;59989;46.220;19.888;2023-04-01T22:19:52;7.59;87.61
72114;SHT31;59989;46.220;19.888;2023-04-01T22:27:25;7.58;87.57
72114;SHT31;59989;46.220;19.888;2023-04-01T22:30:52;7.58;87.46
72114;SHT31;59989;46.220;19.888;2023-04-01T22:34:22;7.54;87.35
72114;SHT31;59989;46.220;19.888;2023-04-01T22:38:34;7.58;87.26
72114;SHT31;59989;46.220;19.888;2023-04-01T22:52:25;7.58;87.03
72114;SHT31;59989;46.220;19.888;2023-04-01T22:55:50;7.55;86.99
72114;SHT31;59989;46.220;19.888;2023-04-01T22:59:19;7.58;86.84
72114;SHT31;59989;46.220;19.888;2023-04-01T23:02:45;7.54;86.81
72114;SHT31;59989;46.220;19.888;2023-04-01T23:06:11;7.57;86.77
72114;SHT31;59989;46.220;19.888;2023-04-01T23:09:35;7.59;86.38
72114;SHT31;59989;46.220;19.888;2023-04-01T23:13:01;7.58;86.34
72114;SHT31;59989;46.220;19.888;2023-04-01T23:16:34;7.59;86.40
72114;SHT31;59989;46.220;19.888;2023-04-01T23:27:06;7.79;85.31
72114;SHT31;59989;46.220;19.888;2023-04-01T23:37:32;7.77;85.23
72114;SHT31;59989;46.220;19.888;2023-04-01T23:40:53;7.67;85.37
72114;SHT31;59989;46.220;19.888;2023-04-01T23:44:15;7.64;85.47
72114;SHT31;59989;46.220;19.888;2023-04-01T23:47:38;7.58;85.43
72114;SHT31;59989;46.220;19.888;2023-04-01T23:51:00;7.50;85.74
72114;SHT31;59989;46.220;19.888;2023-04-01T23:54:33;7.46;85.93
